createdAt,value
2022-10-31T00:00:41.850Z,14.45
2022-10-31T00:01:41.795Z,14.50
2022-10-31T00:02:41.853Z,14.40
2022-10-31T00:03:41.790Z,14.42
2022-10-31T00:04:41.792Z,14.35
2022-10-31T00:05:41.785Z,14.43
2022-10-31T00:06:41.786Z,14.42
2022-10-31T00:07:41.783Z,14.45
2022-10-31T00:08:41.790Z,14.42
2022-10-31T00:09:41.796Z,14.42
2022-10-31T00:10:41.783Z,14.37
2022-10-31T00:11:41.789Z,14.39
2022-10-31T00:12:41.789Z,14.32
2022-10-31T00:13:41.796Z,14.22
2022-10-31T00:14:41.793Z,14.28
2022-10-31T00:15:41.808Z,14.35
2022-10-31T00:16:41.797Z,14.20
2022-10-31T00:17:41.792Z,14.24
2022-10-31T00:18:41.784Z,14.20
2022-10-31T00:19:41.787Z,14.18
2022-10-31T00:20:41.784Z,14.06
2022-10-31T00:21:41.780Z,14.17
2022-10-31T00:22:41.787Z,14.17
2022-10-31T00:23:41.786Z,14.12
2022-10-31T00:24:41.785Z,14.20
2022-10-31T00:25:41.783Z,14.22
2022-10-31T00:26:41.787Z,14.20
2022-10-31T00:27:41.790Z,14.20
2022-10-31T00:28:41.782Z,14.21
2022-10-31T00:29:41.782Z,14.20
2022-10-31T00:30:41.775Z,14.21
2022-10-31T00:31:41.810Z,14.20
2022-10-31T00:32:41.781Z,14.24
2022-10-31T00:33:41.778Z,14.29
2022-10-31T00:34:41.783Z,14.17
2022-10-31T00:35:41.777Z,14.18
2022-10-31T00:36:41.779Z,14.20
2022-10-31T00:37:41.776Z,14.20
2022-10-31T00:38:41.776Z,14.12
2022-10-31T00:39:41.779Z,14.14
2022-10-31T00:40:41.778Z,14.10
2022-10-31T00:41:41.781Z,14.18
2022-10-31T00:42:41.773Z,14.15
2022-10-31T00:43:41.779Z,14.22
2022-10-31T00:44:41.772Z,14.07
2022-10-31T00:45:41.775Z,14.07
2022-10-31T00:46:41.774Z,14.09
2022-10-31T00:47:41.798Z,14.02
2022-10-31T00:48:41.774Z,13.89
2022-10-31T00:49:41.769Z,13.92
2022-10-31T00:50:41.771Z,13.82
2022-10-31T00:51:41.779Z,13.85
2022-10-31T00:52:41.777Z,13.82
2022-10-31T00:53:41.769Z,13.89
2022-10-31T00:54:41.775Z,13.87
2022-10-31T00:55:41.771Z,13.96
2022-10-31T00:56:41.777Z,13.91
2022-10-31T00:57:41.771Z,13.85
2022-10-31T00:58:41.771Z,13.85
2022-10-31T00:59:41.769Z,13.92
2022-10-31T01:00:41.768Z,13.85
2022-10-31T01:01:42.017Z,13.82
2022-10-31T01:02:41.886Z,13.81
2022-10-31T01:03:41.787Z,13.70
2022-10-31T01:04:41.765Z,13.71
2022-10-31T01:05:41.764Z,13.75
2022-10-31T01:06:41.766Z,13.73
2022-10-31T01:07:41.766Z,13.69
2022-10-31T01:08:41.765Z,13.73
2022-10-31T01:09:41.772Z,13.69
2022-10-31T01:10:41.766Z,13.70
2022-10-31T01:11:41.763Z,13.73
2022-10-31T01:12:41.765Z,13.78
2022-10-31T01:13:41.763Z,13.78
2022-10-31T01:14:41.758Z,13.82
2022-10-31T01:15:41.763Z,13.81
2022-10-31T01:16:41.757Z,13.85
2022-10-31T01:17:41.758Z,13.85
2022-10-31T01:18:41.762Z,13.91
2022-10-31T01:19:41.795Z,13.85
2022-10-31T01:20:41.758Z,13.84
2022-10-31T01:21:41.762Z,13.84
2022-10-31T01:22:41.758Z,13.84
2022-10-31T01:23:41.761Z,13.79
2022-10-31T01:24:41.755Z,13.75
2022-10-31T01:25:41.758Z,13.77
2022-10-31T01:26:41.748Z,13.77
2022-10-31T01:27:41.760Z,13.77
2022-10-31T01:28:41.769Z,13.69
2022-10-31T01:29:41.751Z,13.77
2022-10-31T01:30:41.755Z,13.67
2022-10-31T01:31:41.748Z,13.62
2022-10-31T01:32:41.762Z,13.59
2022-10-31T01:33:41.754Z,13.60
2022-10-31T01:34:41.750Z,13.67
2022-10-31T01:35:41.777Z,13.59
2022-10-31T01:36:41.749Z,13.55
2022-10-31T01:37:41.748Z,13.54
2022-10-31T01:38:41.754Z,13.51
2022-10-31T01:39:41.752Z,13.57
2022-10-31T01:40:41.748Z,13.55
2022-10-31T01:41:41.746Z,13.52
2022-10-31T01:42:41.754Z,13.54
2022-10-31T01:43:41.749Z,13.57
2022-10-31T01:44:41.751Z,13.55
2022-10-31T01:45:41.747Z,13.54
2022-10-31T01:46:41.752Z,13.51
2022-10-31T01:47:41.744Z,13.44
2022-10-31T01:48:43.323Z,13.51
2022-10-31T01:49:41.744Z,13.49
2022-10-31T01:50:41.739Z,13.45
2022-10-31T01:51:41.766Z,13.48
2022-10-31T01:52:41.746Z,13.46
2022-10-31T01:53:41.741Z,13.33
2022-10-31T01:54:41.740Z,13.45
2022-10-31T01:55:41.738Z,13.39
2022-10-31T01:56:41.739Z,13.39
2022-10-31T01:57:41.739Z,13.49
2022-10-31T01:58:41.741Z,13.41
2022-10-31T01:59:41.739Z,13.33
2022-10-31T02:00:42.004Z,13.38
2022-10-31T02:01:42.003Z,13.36
2022-10-31T02:02:41.952Z,13.33
2022-10-31T02:03:41.738Z,13.33
2022-10-31T02:04:41.738Z,13.32
2022-10-31T02:05:41.733Z,13.33
2022-10-31T02:06:41.737Z,13.30
2022-10-31T02:07:41.758Z,13.28
2022-10-31T02:08:41.734Z,13.32
2022-10-31T02:09:41.734Z,13.30
2022-10-31T02:10:41.734Z,13.39
2022-10-31T02:11:41.730Z,13.44
2022-10-31T02:12:41.730Z,13.42
2022-10-31T02:13:41.732Z,13.41
2022-10-31T02:14:41.731Z,13.42
2022-10-31T02:15:41.728Z,13.39
2022-10-31T02:16:41.730Z,13.36
2022-10-31T02:17:41.727Z,13.36
2022-10-31T02:18:41.729Z,13.25
2022-10-31T02:19:41.731Z,13.26
2022-10-31T02:20:41.727Z,13.20
2022-10-31T02:21:41.725Z,13.19
2022-10-31T02:22:41.722Z,13.20
2022-10-31T02:23:44.005Z,13.26
2022-10-31T02:24:41.725Z,13.26
2022-10-31T02:25:41.725Z,13.29
2022-10-31T02:26:41.727Z,13.25
2022-10-31T02:27:41.720Z,13.32
2022-10-31T02:28:41.726Z,13.26
2022-10-31T02:29:41.721Z,13.26
2022-10-31T02:30:41.720Z,13.29
2022-10-31T02:31:41.724Z,13.26
2022-10-31T02:32:41.726Z,13.26
2022-10-31T02:33:41.718Z,13.28
2022-10-31T02:34:41.722Z,13.22
2022-10-31T02:35:41.720Z,13.25
2022-10-31T02:36:41.712Z,13.19
2022-10-31T02:37:41.713Z,13.23
2022-10-31T02:38:41.712Z,13.25
2022-10-31T02:39:41.736Z,13.28
2022-10-31T02:40:41.718Z,13.26
2022-10-31T02:41:41.715Z,13.23
2022-10-31T02:42:41.710Z,13.25
2022-10-31T02:43:41.716Z,13.25
2022-10-31T02:44:41.729Z,13.23
2022-10-31T02:45:41.711Z,13.22
2022-10-31T02:46:41.709Z,13.22
2022-10-31T02:47:41.709Z,13.17
2022-10-31T02:48:41.714Z,13.19
2022-10-31T02:49:41.710Z,13.20
2022-10-31T02:50:41.704Z,13.19
2022-10-31T02:51:41.706Z,13.20
2022-10-31T02:52:41.715Z,13.20
2022-10-31T02:53:41.708Z,13.17
2022-10-31T02:54:41.703Z,13.17
2022-10-31T02:55:41.727Z,13.23
2022-10-31T02:56:41.702Z,13.20
2022-10-31T02:57:41.701Z,13.20
2022-10-31T02:58:41.703Z,13.17
2022-10-31T02:59:41.706Z,13.17
2022-10-31T03:00:41.701Z,13.15
2022-10-31T03:01:41.903Z,13.17
2022-10-31T03:02:41.884Z,13.17
2022-10-31T03:03:41.698Z,13.22
2022-10-31T03:04:41.701Z,13.20
2022-10-31T03:05:41.695Z,13.23
2022-10-31T03:06:41.700Z,13.23
2022-10-31T03:07:41.695Z,13.17
2022-10-31T03:08:41.696Z,13.22
2022-10-31T03:09:41.690Z,13.17
2022-10-31T03:10:41.699Z,13.22
2022-10-31T03:11:41.716Z,13.25
2022-10-31T03:12:44.558Z,13.20
2022-10-31T03:13:41.692Z,13.12
2022-10-31T03:14:41.692Z,13.15
2022-10-31T03:15:41.689Z,13.20
2022-10-31T03:16:41.691Z,13.23
2022-10-31T03:17:41.692Z,13.15
2022-10-31T03:18:41.687Z,13.04
2022-10-31T03:19:41.691Z,13.05
2022-10-31T03:20:41.694Z,13.07
2022-10-31T03:21:41.696Z,13.12
2022-10-31T03:22:41.690Z,13.08
2022-10-31T03:23:41.677Z,13.14
2022-10-31T03:24:41.684Z,13.11
2022-10-31T03:25:41.681Z,13.00
2022-10-31T03:26:41.687Z,13.08
2022-10-31T03:27:41.702Z,12.97
2022-10-31T03:28:41.682Z,13.00
2022-10-31T03:29:41.679Z,12.95
2022-10-31T03:30:41.687Z,13.00
2022-10-31T03:31:41.683Z,12.93
2022-10-31T03:32:41.678Z,12.93
2022-10-31T03:33:41.682Z,12.89
2022-10-31T03:34:41.684Z,12.95
2022-10-31T03:35:41.675Z,12.93
2022-10-31T03:36:41.680Z,12.93
2022-10-31T03:37:41.671Z,12.78
2022-10-31T03:38:41.703Z,12.87
2022-10-31T03:39:41.675Z,12.86
2022-10-31T03:40:41.676Z,12.83
2022-10-31T03:41:41.671Z,12.90
2022-10-31T03:42:41.672Z,12.86
2022-10-31T03:43:41.698Z,12.92
2022-10-31T03:44:41.675Z,12.77
2022-10-31T03:45:41.676Z,12.87
2022-10-31T03:46:41.669Z,12.90
2022-10-31T03:47:41.673Z,12.85
2022-10-31T03:48:41.679Z,12.86
2022-10-31T03:49:41.670Z,12.82
2022-10-31T03:50:41.665Z,12.87
2022-10-31T03:51:41.668Z,12.85
2022-10-31T03:52:41.666Z,12.85
2022-10-31T03:53:41.660Z,12.85
2022-10-31T03:54:41.666Z,12.77
2022-10-31T03:55:41.663Z,12.85
2022-10-31T03:56:41.662Z,12.85
2022-10-31T03:57:41.659Z,12.87
2022-10-31T03:58:41.660Z,12.85
2022-10-31T03:59:41.675Z,12.78
2022-10-31T04:00:41.658Z,12.90
2022-10-31T04:01:41.795Z,12.90
2022-10-31T04:02:41.800Z,12.87
2022-10-31T04:03:41.653Z,12.79
2022-10-31T04:04:41.655Z,12.87
2022-10-31T04:05:41.657Z,12.78
2022-10-31T04:06:41.659Z,12.83
2022-10-31T04:07:41.681Z,12.83
2022-10-31T04:08:41.652Z,12.82
2022-10-31T04:09:41.651Z,12.78
2022-10-31T04:10:41.649Z,12.77
2022-10-31T04:11:41.646Z,12.78
2022-10-31T04:12:41.689Z,12.75
2022-10-31T04:13:41.651Z,12.78
2022-10-31T04:14:41.655Z,12.82
2022-10-31T04:15:41.670Z,12.78
2022-10-31T04:16:41.643Z,12.83
2022-10-31T04:17:41.639Z,12.77
2022-10-31T04:18:41.649Z,12.79
2022-10-31T04:19:41.647Z,12.77
2022-10-31T04:20:41.641Z,12.79
2022-10-31T04:21:41.639Z,12.75
2022-10-31T04:22:41.643Z,12.71
2022-10-31T04:23:41.641Z,12.71
2022-10-31T04:24:41.642Z,12.70
2022-10-31T04:25:41.644Z,12.65
2022-10-31T04:26:41.638Z,12.71
2022-10-31T04:27:41.633Z,12.72
2022-10-31T04:28:41.639Z,12.70
2022-10-31T04:29:44.369Z,12.74
2022-10-31T04:30:41.631Z,12.68
2022-10-31T04:31:41.649Z,12.77
2022-10-31T04:32:41.633Z,12.77
2022-10-31T04:33:41.627Z,12.72
2022-10-31T04:34:41.627Z,12.70
2022-10-31T04:35:41.625Z,12.70
2022-10-31T04:36:41.626Z,12.72
2022-10-31T04:37:41.622Z,12.64
2022-10-31T04:38:41.624Z,12.70
2022-10-31T04:39:41.626Z,12.60
2022-10-31T04:40:41.651Z,12.64
2022-10-31T04:41:41.630Z,12.65
2022-10-31T04:42:41.622Z,12.67
2022-10-31T04:43:41.620Z,12.65
2022-10-31T04:44:41.624Z,12.67
2022-10-31T04:45:41.622Z,12.64
2022-10-31T04:46:41.621Z,12.60
2022-10-31T04:47:41.641Z,12.68
2022-10-31T04:48:41.620Z,12.62
2022-10-31T04:49:41.617Z,12.68
2022-10-31T04:50:41.617Z,12.70
2022-10-31T04:51:41.613Z,12.71
2022-10-31T04:52:41.614Z,12.67
2022-10-31T04:53:41.613Z,12.75
2022-10-31T04:54:41.624Z,12.79
2022-10-31T04:55:41.608Z,12.78
2022-10-31T04:56:41.613Z,12.75
2022-10-31T04:57:41.609Z,12.72
2022-10-31T04:58:41.616Z,12.75
2022-10-31T04:59:41.604Z,12.79
2022-10-31T05:00:41.660Z,12.78
2022-10-31T05:01:41.773Z,12.79
2022-10-31T05:02:44.445Z,12.75
2022-10-31T05:03:41.666Z,12.71
2022-10-31T05:04:41.602Z,12.74
2022-10-31T05:05:41.602Z,12.72
2022-10-31T05:06:41.602Z,12.65
2022-10-31T05:07:41.604Z,12.68
2022-10-31T05:08:41.600Z,12.74
2022-10-31T05:09:41.598Z,12.71
2022-10-31T05:10:41.598Z,12.71
2022-10-31T05:11:41.596Z,12.71
2022-10-31T05:12:41.600Z,12.64
2022-10-31T05:13:41.592Z,12.68
2022-10-31T05:14:43.532Z,12.56
2022-10-31T05:15:41.592Z,12.50
2022-10-31T05:16:41.596Z,12.56
2022-10-31T05:17:41.596Z,12.54
2022-10-31T05:18:41.591Z,12.46
2022-10-31T05:19:41.613Z,12.47
2022-10-31T05:20:41.593Z,12.50
2022-10-31T05:21:41.592Z,12.41
2022-10-31T05:22:41.588Z,12.47
2022-10-31T05:23:45.877Z,12.49
2022-10-31T05:24:41.582Z,12.47
2022-10-31T05:25:41.583Z,12.54
2022-10-31T05:26:41.586Z,12.49
2022-10-31T05:27:41.579Z,12.52
2022-10-31T05:28:41.582Z,12.53
2022-10-31T05:29:41.583Z,12.38
2022-10-31T05:30:41.582Z,12.49
2022-10-31T05:31:41.578Z,12.46
2022-10-31T05:32:41.579Z,12.47
2022-10-31T05:33:41.577Z,12.42
2022-10-31T05:34:41.577Z,12.42
2022-10-31T05:35:41.592Z,12.49
2022-10-31T05:36:41.582Z,12.46
2022-10-31T05:37:41.580Z,12.50
2022-10-31T05:38:41.581Z,12.53
2022-10-31T05:39:41.567Z,12.45
2022-10-31T05:40:41.569Z,12.52
2022-10-31T05:41:41.565Z,12.52
2022-10-31T05:42:41.571Z,12.46
2022-10-31T05:43:41.566Z,12.42
2022-10-31T05:44:41.571Z,12.47
2022-10-31T05:45:41.569Z,12.38
2022-10-31T05:46:41.572Z,12.46
2022-10-31T05:47:41.563Z,12.42
2022-10-31T05:48:41.561Z,12.47
2022-10-31T05:49:41.562Z,12.46
2022-10-31T05:50:41.558Z,12.41
2022-10-31T05:51:41.575Z,12.41
2022-10-31T05:52:41.559Z,12.45
2022-10-31T05:53:41.559Z,12.49
2022-10-31T05:54:41.560Z,12.41
2022-10-31T05:55:41.565Z,12.49
2022-10-31T05:56:41.563Z,12.50
2022-10-31T05:57:41.557Z,12.49
2022-10-31T05:58:41.555Z,12.42
2022-10-31T05:59:41.554Z,12.46
2022-10-31T06:00:41.553Z,12.49
2022-10-31T06:01:41.635Z,12.50
2022-10-31T06:02:41.549Z,12.39
2022-10-31T06:03:41.614Z,12.47
2022-10-31T06:04:41.615Z,12.47
2022-10-31T06:05:41.544Z,12.41
2022-10-31T06:06:41.548Z,12.42
2022-10-31T06:07:41.569Z,12.37
2022-10-31T06:08:41.547Z,12.38
2022-10-31T06:09:41.553Z,12.45
2022-10-31T06:10:41.544Z,12.49
2022-10-31T06:11:41.546Z,12.47
2022-10-31T06:12:41.624Z,12.45
2022-10-31T06:13:41.534Z,12.47
2022-10-31T06:14:41.535Z,12.57
2022-10-31T06:15:41.536Z,12.53
2022-10-31T06:16:41.538Z,12.53
2022-10-31T06:17:41.542Z,12.56
2022-10-31T06:18:41.534Z,12.50
2022-10-31T06:19:41.571Z,12.53
2022-10-31T06:20:41.531Z,12.47
2022-10-31T06:21:41.532Z,12.52
2022-10-31T06:22:41.532Z,12.50
2022-10-31T06:23:41.551Z,12.53
2022-10-31T06:24:41.527Z,12.47
2022-10-31T06:25:41.526Z,12.54
2022-10-31T06:26:41.528Z,12.57
2022-10-31T06:27:41.532Z,12.57
2022-10-31T06:28:41.524Z,12.53
2022-10-31T06:29:41.525Z,12.64
2022-10-31T06:30:41.522Z,12.70
2022-10-31T06:31:41.522Z,12.62
2022-10-31T06:32:41.522Z,12.67
2022-10-31T06:33:41.520Z,12.68
2022-10-31T06:34:41.518Z,12.71
2022-10-31T06:35:41.516Z,12.75
2022-10-31T06:36:41.514Z,12.72
2022-10-31T06:37:43.375Z,12.79
2022-10-31T06:38:41.507Z,12.86
2022-10-31T06:39:41.558Z,12.89
2022-10-31T06:40:41.522Z,12.86
2022-10-31T06:41:41.514Z,13.00
2022-10-31T06:42:41.512Z,13.03
2022-10-31T06:43:41.514Z,13.05
2022-10-31T06:44:41.513Z,13.04
2022-10-31T06:45:41.509Z,13.01
2022-10-31T06:46:41.503Z,13.01
2022-10-31T06:48:03.582Z,13.07
2022-10-31T06:48:41.508Z,13.05
2022-10-31T06:49:41.506Z,13.19
2022-10-31T06:50:41.503Z,13.07
2022-10-31T06:51:41.505Z,13.08
2022-10-31T06:52:41.496Z,13.14
2022-10-31T06:53:41.505Z,13.19
2022-10-31T06:54:41.500Z,13.19
2022-10-31T06:55:41.528Z,13.20
2022-10-31T06:56:41.500Z,13.20
2022-10-31T06:57:41.497Z,13.15
2022-10-31T06:58:41.501Z,13.28
2022-10-31T06:59:41.495Z,13.25
2022-10-31T07:00:41.636Z,13.32
2022-10-31T07:01:41.677Z,13.25
2022-10-31T07:02:41.493Z,13.28
2022-10-31T07:03:41.495Z,13.32
2022-10-31T07:04:41.494Z,13.32
2022-10-31T07:05:41.488Z,13.38
2022-10-31T07:06:41.487Z,13.42
2022-10-31T07:07:41.487Z,13.52
2022-10-31T07:08:41.487Z,13.62
2022-10-31T07:09:41.487Z,13.69
2022-10-31T07:10:41.488Z,13.64
2022-10-31T07:11:41.510Z,13.67
2022-10-31T07:12:41.480Z,13.81
2022-10-31T07:13:41.482Z,13.82
2022-10-31T07:14:41.485Z,13.92
2022-10-31T07:15:41.481Z,13.97
2022-10-31T07:16:41.487Z,14.14
2022-10-31T07:17:41.480Z,14.12
2022-10-31T07:18:41.479Z,14.18
2022-10-31T07:19:41.478Z,14.20
2022-10-31T07:20:41.477Z,14.24
2022-10-31T07:21:41.489Z,14.45
2022-10-31T07:22:41.474Z,14.43
2022-10-31T07:23:41.475Z,14.58
2022-10-31T07:24:41.480Z,14.62
2022-10-31T07:25:41.475Z,14.70
2022-10-31T07:26:41.529Z,14.83
2022-10-31T07:27:42.856Z,14.86
2022-10-31T07:28:41.472Z,15.01
2022-10-31T07:29:41.473Z,15.03
2022-10-31T07:30:41.479Z,15.06
2022-10-31T07:31:41.477Z,15.25
2022-10-31T07:32:41.464Z,15.35
2022-10-31T07:33:41.473Z,15.35
2022-10-31T07:34:46.529Z,15.51
2022-10-31T07:35:41.472Z,15.60
2022-10-31T07:36:41.466Z,15.74
2022-10-31T07:37:41.473Z,15.82
2022-10-31T07:38:41.471Z,15.89
2022-10-31T07:39:41.467Z,15.93
2022-10-31T07:40:41.475Z,16.01
2022-10-31T07:41:41.470Z,16.09
2022-10-31T07:42:41.486Z,16.20
2022-10-31T07:43:41.561Z,16.23
2022-10-31T07:44:41.466Z,16.49
2022-10-31T07:45:41.470Z,16.60
2022-10-31T07:46:41.476Z,16.60
2022-10-31T07:47:41.467Z,16.86
2022-10-31T07:48:41.456Z,16.94
2022-10-31T07:49:41.460Z,17.11
2022-10-31T07:50:41.464Z,17.28
2022-10-31T07:51:46.350Z,17.34
2022-10-31T07:52:41.462Z,17.40
2022-10-31T07:53:41.460Z,17.54
2022-10-31T07:54:41.459Z,17.77
2022-10-31T07:55:41.479Z,17.87
2022-10-31T07:56:41.454Z,17.86
2022-10-31T07:57:41.461Z,17.92
2022-10-31T07:58:41.460Z,18.07
2022-10-31T07:59:41.475Z,18.08
2022-10-31T08:00:41.613Z,18.27
2022-10-31T08:01:41.460Z,18.36
2022-10-31T08:02:41.457Z,18.41
2022-10-31T08:03:41.467Z,18.65
2022-10-31T08:04:41.459Z,18.66
2022-10-31T08:05:41.459Z,18.80
2022-10-31T08:06:41.463Z,18.91
2022-10-31T08:07:41.464Z,18.98
2022-10-31T08:08:41.459Z,19.14
2022-10-31T08:09:41.459Z,19.16
2022-10-31T08:10:41.492Z,19.25
2022-10-31T08:11:41.563Z,19.44
2022-10-31T08:12:41.462Z,19.51
2022-10-31T08:13:41.459Z,19.50
2022-10-31T08:14:41.460Z,19.78
2022-10-31T08:15:41.520Z,19.81
2022-10-31T08:16:41.470Z,19.80
2022-10-31T08:17:41.468Z,19.94
2022-10-31T08:18:41.459Z,19.95
2022-10-31T08:19:41.475Z,19.92
2022-10-31T08:20:41.463Z,19.94
2022-10-31T08:21:41.463Z,19.83
2022-10-31T08:22:43.875Z,19.95
2022-10-31T08:23:41.482Z,19.88
2022-10-31T08:24:41.470Z,19.95
2022-10-31T08:25:41.464Z,19.96
2022-10-31T08:26:41.581Z,19.99
2022-10-31T08:27:41.479Z,20.02
2022-10-31T08:28:41.479Z,20.03
2022-10-31T08:29:41.461Z,19.99
2022-10-31T08:30:41.463Z,20.08
2022-10-31T08:31:42.970Z,20.02
2022-10-31T08:32:41.468Z,20.02
2022-10-31T08:33:41.467Z,19.99
2022-10-31T08:34:41.468Z,20.03
2022-10-31T08:35:41.469Z,20.17
2022-10-31T08:36:41.480Z,20.18
2022-10-31T08:37:41.471Z,20.08
2022-10-31T08:38:41.465Z,20.14
2022-10-31T08:39:41.466Z,20.26
2022-10-31T08:40:41.485Z,20.24
2022-10-31T08:41:41.478Z,20.31
2022-10-31T08:42:41.469Z,20.36
2022-10-31T08:43:41.476Z,20.36
2022-10-31T08:44:41.472Z,20.31
2022-10-31T08:45:41.474Z,20.29
2022-10-31T08:46:41.470Z,20.29
2022-10-31T08:47:41.505Z,20.32
2022-10-31T08:48:41.486Z,20.35
2022-10-31T08:49:41.481Z,20.32
2022-10-31T08:50:41.478Z,20.42
2022-10-31T08:51:41.476Z,20.43
2022-10-31T08:53:03.693Z,20.51
2022-10-31T08:53:41.471Z,20.54
2022-10-31T08:54:41.473Z,20.57
2022-10-31T08:55:41.475Z,20.59
2022-10-31T08:56:41.496Z,20.61
2022-10-31T08:57:41.479Z,20.59
2022-10-31T08:58:41.483Z,20.57
2022-10-31T08:59:41.480Z,20.58
2022-10-31T09:00:41.548Z,20.69
2022-10-31T09:01:41.609Z,20.74
2022-10-31T09:02:41.477Z,20.72
2022-10-31T09:03:41.503Z,20.92
2022-10-31T09:04:41.484Z,20.97
2022-10-31T09:05:41.499Z,20.94
2022-10-31T09:06:50.472Z,21.07
2022-10-31T09:07:41.482Z,21.10
2022-10-31T09:08:41.489Z,21.14
2022-10-31T09:09:41.491Z,21.19
2022-10-31T09:10:41.485Z,21.24
2022-10-31T09:11:41.486Z,21.34
2022-10-31T09:12:41.489Z,21.44
2022-10-31T09:13:41.751Z,21.44
2022-10-31T09:14:41.489Z,21.40
2022-10-31T09:15:41.498Z,21.42
2022-10-31T09:16:41.499Z,21.44
2022-10-31T09:17:41.494Z,21.52
2022-10-31T09:18:41.495Z,21.59
2022-10-31T09:19:41.535Z,21.59
2022-10-31T09:20:41.494Z,21.74
2022-10-31T09:21:41.490Z,21.96
2022-10-31T09:22:41.499Z,22.09
2022-10-31T09:23:41.507Z,22.22
2022-10-31T09:24:41.498Z,22.22
2022-10-31T09:25:44.018Z,22.22
2022-10-31T09:26:41.554Z,22.25
2022-10-31T09:27:41.509Z,22.24
2022-10-31T09:28:41.507Z,22.35
2022-10-31T09:29:41.504Z,22.52
2022-10-31T09:30:41.516Z,22.51
2022-10-31T09:31:44.888Z,22.73
2022-10-31T09:32:41.513Z,22.68
2022-10-31T09:33:41.512Z,22.65
2022-10-31T09:34:41.508Z,22.60
2022-10-31T09:35:41.536Z,22.60
2022-10-31T09:36:41.541Z,22.51
2022-10-31T09:37:41.519Z,22.51
2022-10-31T09:38:41.523Z,22.42
2022-10-31T09:39:41.526Z,22.43
2022-10-31T09:40:41.519Z,22.39
2022-10-31T09:41:41.528Z,22.33
2022-10-31T09:42:41.531Z,22.42
2022-10-31T09:43:41.537Z,22.36
2022-10-31T09:44:41.540Z,22.36
2022-10-31T09:45:41.544Z,22.36
2022-10-31T09:46:41.534Z,22.54
2022-10-31T09:47:41.539Z,22.60
2022-10-31T09:48:41.536Z,22.70
2022-10-31T09:49:41.636Z,22.77
2022-10-31T09:50:41.544Z,22.70
2022-10-31T09:51:41.637Z,22.86
2022-10-31T09:52:41.545Z,22.73
2022-10-31T09:53:41.550Z,22.98
2022-10-31T09:54:41.553Z,23.15
2022-10-31T09:55:41.554Z,23.10
2022-10-31T09:56:41.558Z,23.12
2022-10-31T09:57:41.564Z,23.38
2022-10-31T09:58:41.568Z,23.40
2022-10-31T09:59:41.569Z,23.65
2022-10-31T10:00:41.602Z,23.79
2022-10-31T10:01:41.858Z,23.97
2022-10-31T10:02:41.578Z,24.31
2022-10-31T10:03:41.588Z,24.30
2022-10-31T10:04:41.596Z,24.46
2022-10-31T10:05:41.594Z,24.40
2022-10-31T10:06:41.619Z,24.58
2022-10-31T10:07:41.646Z,24.91
2022-10-31T10:08:41.597Z,25.05
2022-10-31T10:09:41.604Z,25.15
2022-10-31T10:10:41.612Z,25.39
2022-10-31T10:11:41.611Z,25.61
2022-10-31T10:12:41.615Z,25.50
2022-10-31T10:13:41.616Z,25.42
2022-10-31T10:14:41.630Z,25.32
2022-10-31T10:15:41.646Z,24.99
2022-10-31T10:16:41.634Z,24.55
2022-10-31T10:17:41.641Z,24.47
2022-10-31T10:18:41.645Z,24.28
2022-10-31T10:19:41.657Z,24.03
2022-10-31T10:20:41.681Z,23.83
2022-10-31T10:21:41.674Z,23.73
2022-10-31T10:22:41.668Z,23.85
2022-10-31T10:23:41.690Z,23.98
2022-10-31T10:24:41.681Z,24.24
2022-10-31T10:25:41.684Z,24.21
2022-10-31T10:26:41.800Z,24.28
2022-10-31T10:27:41.687Z,24.25
2022-10-31T10:28:41.694Z,24.22
2022-10-31T10:29:41.700Z,24.16
2022-10-31T10:30:41.704Z,24.09
2022-10-31T10:31:41.710Z,23.98
2022-10-31T10:32:41.709Z,23.93
2022-10-31T10:33:41.715Z,23.72
2022-10-31T10:34:41.740Z,23.84
2022-10-31T10:35:41.727Z,24.22
2022-10-31T10:36:41.729Z,24.49
2022-10-31T10:37:41.741Z,24.80
2022-10-31T10:38:41.741Z,25.10
2022-10-31T10:39:41.770Z,25.46
2022-10-31T10:40:41.745Z,25.70
2022-10-31T10:41:41.756Z,26.07
2022-10-31T10:42:41.770Z,26.29
2022-10-31T10:43:41.843Z,26.30
2022-10-31T10:44:41.795Z,26.33
2022-10-31T10:45:41.790Z,26.06
2022-10-31T10:46:41.801Z,25.87
2022-10-31T10:47:41.870Z,25.72
2022-10-31T10:48:41.812Z,25.55
2022-10-31T10:49:41.808Z,25.46
2022-10-31T10:50:41.812Z,25.35
2022-10-31T10:52:47.530Z,25.36
2022-10-31T10:53:41.823Z,25.32
2022-10-31T10:54:41.834Z,25.35
2022-10-31T10:55:41.865Z,25.64
2022-10-31T10:56:41.845Z,25.99
2022-10-31T10:57:41.855Z,25.87
2022-10-31T10:58:41.860Z,25.88
2022-10-31T10:59:41.865Z,25.85
2022-10-31T11:00:41.988Z,25.94
2022-10-31T11:01:41.884Z,25.72
2022-10-31T11:02:43.855Z,25.57
2022-10-31T11:03:41.894Z,25.38
2022-10-31T11:04:41.910Z,25.13
2022-10-31T11:05:41.926Z,24.91
2022-10-31T11:06:41.915Z,24.85
2022-10-31T11:07:41.925Z,24.60
2022-10-31T11:08:41.920Z,24.50
2022-10-31T11:09:41.931Z,24.53
2022-10-31T11:10:41.948Z,24.35
2022-10-31T11:11:41.973Z,24.28
2022-10-31T11:12:41.957Z,24.32
2022-10-31T11:13:41.958Z,24.32
2022-10-31T11:14:41.976Z,24.43
2022-10-31T11:15:41.971Z,24.49
2022-10-31T11:16:41.985Z,24.60
2022-10-31T11:17:41.988Z,24.61
2022-10-31T11:18:41.994Z,24.60
2022-10-31T11:19:41.998Z,24.61
2022-10-31T11:20:42.026Z,24.84
2022-10-31T11:21:42.015Z,25.28
2022-10-31T11:22:42.017Z,25.62
2022-10-31T11:23:42.020Z,25.80
2022-10-31T11:24:42.041Z,25.73
2022-10-31T11:25:42.039Z,25.95
2022-10-31T11:26:42.036Z,26.07
2022-10-31T11:27:42.067Z,26.35
2022-10-31T11:28:42.052Z,26.65
2022-10-31T11:29:42.053Z,27.17
2022-10-31T11:30:42.061Z,27.54
2022-10-31T11:31:42.072Z,27.94
2022-10-31T11:32:42.078Z,28.56
2022-10-31T11:33:42.080Z,29.16
2022-10-31T11:34:42.098Z,29.67
2022-10-31T11:35:42.101Z,29.90
2022-10-31T11:36:42.149Z,29.97
2022-10-31T11:37:42.107Z,30.39
2022-10-31T11:38:42.118Z,30.42
2022-10-31T11:39:42.122Z,30.39
2022-10-31T11:40:42.132Z,30.57
2022-10-31T11:41:42.144Z,30.86
2022-10-31T11:42:42.153Z,31.10
2022-10-31T11:43:42.181Z,31.17
2022-10-31T11:44:42.167Z,31.36
2022-10-31T11:45:42.171Z,31.48
2022-10-31T11:46:42.193Z,31.93
2022-10-31T11:47:42.199Z,32.06
2022-10-31T11:48:42.206Z,32.15
2022-10-31T11:49:42.209Z,32.06
2022-10-31T11:50:42.222Z,32.10
2022-10-31T11:51:42.232Z,32.50
2022-10-31T11:52:42.343Z,32.79
2022-10-31T11:53:42.254Z,33.26
2022-10-31T11:54:42.262Z,33.35
2022-10-31T11:55:42.275Z,33.15
2022-10-31T11:56:42.287Z,33.07
2022-10-31T11:57:42.298Z,33.04
2022-10-31T11:58:42.309Z,32.97
2022-10-31T11:59:42.329Z,33.16
2022-10-31T12:00:45.758Z,32.87
2022-10-31T12:01:44.999Z,32.81
2022-10-31T12:02:42.503Z,32.48
2022-10-31T12:03:42.359Z,32.48
2022-10-31T12:04:42.409Z,32.37
2022-10-31T12:05:42.391Z,31.96
2022-10-31T12:06:42.395Z,31.36
2022-10-31T12:07:42.408Z,30.49
2022-10-31T12:08:42.427Z,29.80
2022-10-31T12:09:42.440Z,29.18
2022-10-31T12:10:42.445Z,28.90
2022-10-31T12:11:42.446Z,28.58
2022-10-31T12:12:42.461Z,28.21
2022-10-31T12:13:42.470Z,27.87
2022-10-31T12:14:42.478Z,27.57
2022-10-31T12:15:42.508Z,27.17
2022-10-31T12:16:42.506Z,26.95
2022-10-31T12:17:42.505Z,26.94
2022-10-31T12:18:42.519Z,26.84
2022-10-31T12:19:42.526Z,26.84
2022-10-31T12:20:42.532Z,26.84
2022-10-31T12:21:42.538Z,26.91
2022-10-31T12:22:42.550Z,26.82
2022-10-31T12:23:42.560Z,26.73
2022-10-31T12:24:42.568Z,26.66
2022-10-31T12:25:42.582Z,26.62
2022-10-31T12:26:42.590Z,26.65
2022-10-31T12:27:42.636Z,26.58
2022-10-31T12:28:46.208Z,26.48
2022-10-31T12:29:42.602Z,26.54
2022-10-31T12:30:42.617Z,26.44
2022-10-31T12:31:42.643Z,26.33
2022-10-31T12:32:42.659Z,26.30
2022-10-31T12:33:42.635Z,26.12
2022-10-31T12:34:47.801Z,25.95
2022-10-31T12:35:42.706Z,25.95
2022-10-31T12:36:42.708Z,25.88
2022-10-31T12:37:42.801Z,25.90
2022-10-31T12:38:42.671Z,25.72
2022-10-31T12:39:42.714Z,25.54
2022-10-31T12:40:42.699Z,25.45
2022-10-31T12:41:42.709Z,25.46
2022-10-31T12:42:42.702Z,25.50
2022-10-31T12:43:42.711Z,25.32
2022-10-31T12:44:42.728Z,25.25
2022-10-31T12:45:42.718Z,25.17
2022-10-31T12:46:42.726Z,25.23
2022-10-31T12:47:42.829Z,25.20
2022-10-31T12:48:42.741Z,25.30
2022-10-31T12:49:42.744Z,25.28
2022-10-31T12:50:42.754Z,25.21
2022-10-31T12:51:42.753Z,25.25
2022-10-31T12:52:42.763Z,25.32
2022-10-31T12:53:42.769Z,25.24